createdAt,value
2018-12-18T00:00:19.261Z,51.31
2018-12-18T00:01:19.268Z,51.21
2018-12-18T00:02:19.265Z,51.41
2018-12-18T00:03:19.271Z,51.31
2018-12-18T00:04:19.271Z,51.02
2018-12-18T00:05:19.280Z,51.31
2018-12-18T00:06:19.276Z,51.50
2018-12-18T00:07:19.285Z,51.41
2018-12-18T00:08:19.287Z,51.60
2018-12-18T00:09:19.287Z,51.50
2018-12-18T00:10:19.292Z,51.41
2018-12-18T00:11:19.297Z,51.50
2018-12-18T00:12:19.303Z,51.98
2018-12-18T00:13:19.293Z,51.98
2018-12-18T00:14:19.312Z,52.08
2018-12-18T00:15:19.304Z,52.08
2018-12-18T00:16:19.309Z,51.98
2018-12-18T00:17:19.310Z,51.98
2018-12-18T00:18:19.322Z,52.08
2018-12-18T00:19:19.311Z,51.89
2018-12-18T00:20:19.319Z,51.79
2018-12-18T00:21:19.311Z,51.70
2018-12-18T00:22:19.327Z,51.89
2018-12-18T00:23:19.314Z,51.79
2018-12-18T00:24:19.333Z,51.79
2018-12-18T00:25:19.327Z,51.98
2018-12-18T00:26:19.336Z,51.79
2018-12-18T00:27:19.341Z,51.79
2018-12-18T00:28:19.330Z,51.89
2018-12-18T00:29:19.337Z,51.89
2018-12-18T00:30:19.350Z,51.79
2018-12-18T00:31:19.339Z,51.98
2018-12-18T00:32:19.352Z,51.98
2018-12-18T00:33:19.344Z,51.89
2018-12-18T00:34:19.367Z,51.70
2018-12-18T00:35:19.357Z,51.98
2018-12-18T00:36:19.367Z,51.70
2018-12-18T00:37:20.106Z,51.70
2018-12-18T00:38:19.367Z,51.70
2018-12-18T00:39:19.366Z,52.18
2018-12-18T00:40:19.377Z,51.79
2018-12-18T00:41:19.380Z,52.08
2018-12-18T00:42:19.392Z,52.08
2018-12-18T00:43:19.393Z,51.79
2018-12-18T00:44:19.386Z,51.60
2018-12-18T00:45:19.392Z,52.18
2018-12-18T00:46:19.394Z,52.08
2018-12-18T00:47:19.400Z,52.27
2018-12-18T00:48:19.405Z,51.70
2018-12-18T00:49:19.473Z,51.60
2018-12-18T00:50:19.408Z,51.79
2018-12-18T00:51:19.413Z,51.89
2018-12-18T00:52:19.433Z,51.98
2018-12-18T00:53:19.423Z,51.70
2018-12-18T00:54:19.416Z,51.98
2018-12-18T00:55:19.432Z,51.70
2018-12-18T00:56:19.427Z,51.89
2018-12-18T00:57:19.426Z,51.79
2018-12-18T00:58:19.429Z,51.98
2018-12-18T00:59:19.432Z,51.98
2018-12-18T01:00:19.435Z,51.79
2018-12-18T01:01:19.505Z,51.98
2018-12-18T01:02:19.438Z,52.27
2018-12-18T01:03:19.442Z,51.41
2018-12-18T01:04:19.450Z,51.79
2018-12-18T01:05:19.446Z,51.79
2018-12-18T01:06:19.448Z,52.08
2018-12-18T01:07:19.545Z,51.79
2018-12-18T01:08:19.461Z,51.79
2018-12-18T01:09:19.460Z,51.79
2018-12-18T01:10:19.463Z,51.89
2018-12-18T01:11:19.478Z,52.08
2018-12-18T01:12:19.472Z,51.70
2018-12-18T01:13:19.489Z,52.18
2018-12-18T01:14:19.477Z,52.08
2018-12-18T01:15:19.485Z,52.18
2018-12-18T01:16:19.484Z,52.27
2018-12-18T01:17:19.501Z,51.98
2018-12-18T01:18:19.492Z,51.79
2018-12-18T01:19:19.496Z,52.27
2018-12-18T01:20:19.496Z,51.89
2018-12-18T01:21:19.493Z,52.27
2018-12-18T01:22:19.502Z,52.27
2018-12-18T01:23:19.542Z,52.18
2018-12-18T01:24:19.512Z,51.89
2018-12-18T01:25:19.528Z,51.89
2018-12-18T01:26:19.516Z,52.18
2018-12-18T01:27:19.522Z,51.89
2018-12-18T01:28:19.514Z,51.98
2018-12-18T01:29:19.540Z,52.18
2018-12-18T01:30:19.524Z,51.89
2018-12-18T01:31:19.520Z,51.98
2018-12-18T01:32:19.532Z,51.89
2018-12-18T01:33:19.548Z,51.89
2018-12-18T01:34:19.537Z,52.47
2018-12-18T01:35:19.542Z,52.37
2018-12-18T01:36:19.543Z,52.08
2018-12-18T01:37:19.562Z,52.66
2018-12-18T01:38:19.554Z,52.27
2018-12-18T01:39:19.566Z,52.08
2018-12-18T01:40:19.562Z,52.37
2018-12-18T01:41:19.556Z,52.27
2018-12-18T01:42:19.563Z,51.70
2018-12-18T01:43:19.570Z,52.27
2018-12-18T01:44:19.564Z,52.47
2018-12-18T01:45:19.580Z,51.60
2018-12-18T01:46:19.567Z,52.37
2018-12-18T01:47:19.608Z,52.37
2018-12-18T01:48:19.574Z,52.47
2018-12-18T01:49:19.576Z,52.37
2018-12-18T01:50:19.579Z,52.37
2018-12-18T01:51:19.586Z,51.70
2018-12-18T01:52:19.591Z,51.60
2018-12-18T01:53:19.590Z,52.27
2018-12-18T01:54:19.591Z,51.79
2018-12-18T01:55:19.597Z,51.79
2018-12-18T01:56:19.608Z,52.37
2018-12-18T01:57:19.602Z,52.27
2018-12-18T01:58:19.609Z,52.18
2018-12-18T01:59:19.618Z,51.79
2018-12-18T02:00:19.617Z,51.60
2018-12-18T02:01:19.617Z,51.70
2018-12-18T02:02:19.626Z,52.08
2018-12-18T02:03:19.639Z,51.89
2018-12-18T02:04:19.628Z,51.50
2018-12-18T02:05:19.627Z,51.79
2018-12-18T02:06:19.623Z,52.08
2018-12-18T02:07:19.639Z,52.08
2018-12-18T02:08:19.636Z,52.18
2018-12-18T02:09:19.640Z,51.98
2018-12-18T02:10:19.638Z,52.08
2018-12-18T02:11:19.641Z,52.27
2018-12-18T02:12:19.642Z,51.89
2018-12-18T02:13:19.648Z,52.27
2018-12-18T02:14:19.655Z,51.89
2018-12-18T02:15:19.653Z,52.27
2018-12-18T02:16:19.657Z,52.37
2018-12-18T02:17:19.669Z,52.37
2018-12-18T02:18:19.660Z,52.56
2018-12-18T02:19:19.669Z,52.18
2018-12-18T02:20:19.676Z,52.08
2018-12-18T02:21:19.672Z,52.18
2018-12-18T02:22:19.676Z,52.08
2018-12-18T02:23:19.676Z,52.37
2018-12-18T02:24:19.684Z,52.18
2018-12-18T02:25:19.681Z,52.27
2018-12-18T02:26:19.691Z,52.47
2018-12-18T02:27:19.687Z,52.27
2018-12-18T02:28:19.693Z,52.27
2018-12-18T02:29:19.696Z,52.37
2018-12-18T02:30:19.703Z,52.37
2018-12-18T02:31:19.699Z,52.18
2018-12-18T02:32:19.708Z,52.18
2018-12-18T02:33:19.707Z,52.27
2018-12-18T02:34:19.711Z,52.08
2018-12-18T02:35:19.713Z,52.37
2018-12-18T02:36:19.718Z,52.47
2018-12-18T02:37:19.716Z,52.27
2018-12-18T02:38:19.728Z,52.27
2018-12-18T02:39:19.724Z,52.08
2018-12-18T02:40:19.762Z,52.27
2018-12-18T02:41:19.731Z,52.08
2018-12-18T02:42:19.735Z,52.27
2018-12-18T02:43:19.734Z,52.08
2018-12-18T02:44:19.739Z,52.08
2018-12-18T02:45:19.742Z,52.27
2018-12-18T02:46:19.746Z,52.47
2018-12-18T02:47:19.749Z,52.27
2018-12-18T02:48:19.754Z,52.08
2018-12-18T02:49:19.752Z,52.08
2018-12-18T02:50:19.761Z,52.08
2018-12-18T02:51:19.757Z,52.08
2018-12-18T02:52:19.763Z,52.27
2018-12-18T02:53:19.770Z,52.27
2018-12-18T02:54:19.774Z,52.18
2018-12-18T02:55:19.774Z,52.08
2018-12-18T02:56:19.775Z,52.47
2018-12-18T02:57:19.779Z,52.27
2018-12-18T02:58:19.787Z,52.27
2018-12-18T02:59:19.785Z,52.47
2018-12-18T03:00:19.790Z,52.37
2018-12-18T03:01:19.787Z,52.27
2018-12-18T03:02:19.788Z,52.27
2018-12-18T03:03:19.798Z,52.27
2018-12-18T03:04:21.728Z,52.27
2018-12-18T03:05:19.795Z,52.27
2018-12-18T03:06:19.800Z,52.27
2018-12-18T03:07:19.808Z,52.27
2018-12-18T03:08:19.811Z,51.98
2018-12-18T03:09:19.811Z,52.18
2018-12-18T03:10:19.822Z,52.27
2018-12-18T03:11:19.819Z,52.18
2018-12-18T03:12:19.821Z,52.08
2018-12-18T03:13:19.821Z,52.18
2018-12-18T03:14:19.828Z,52.18
2018-12-18T03:15:19.831Z,52.08
2018-12-18T03:16:19.839Z,52.08
2018-12-18T03:17:19.834Z,52.27
2018-12-18T03:18:19.838Z,52.27
2018-12-18T03:19:19.848Z,51.98
2018-12-18T03:20:19.847Z,51.98
2018-12-18T03:21:19.847Z,52.18
2018-12-18T03:22:19.850Z,52.27
2018-12-18T03:23:19.851Z,51.98
2018-12-18T03:24:19.864Z,52.08
2018-12-18T03:25:19.862Z,52.18
2018-12-18T03:26:19.861Z,51.98
2018-12-18T03:27:19.863Z,51.98
2018-12-18T03:28:19.867Z,51.89
2018-12-18T03:29:19.871Z,51.98
2018-12-18T03:30:19.870Z,51.98
2018-12-18T03:31:19.875Z,52.18
2018-12-18T03:32:19.880Z,51.89
2018-12-18T03:33:19.894Z,52.08
2018-12-18T03:34:19.894Z,51.89
2018-12-18T03:35:19.885Z,51.89
2018-12-18T03:36:19.891Z,51.89
2018-12-18T03:37:19.890Z,52.08
2018-12-18T03:38:19.890Z,51.89
2018-12-18T03:39:19.904Z,52.08
2018-12-18T03:40:19.902Z,51.89
2018-12-18T03:41:19.907Z,52.08
2018-12-18T03:42:19.914Z,51.89
2018-12-18T03:43:19.914Z,52.18
2018-12-18T03:44:19.914Z,52.08
2018-12-18T03:45:19.921Z,51.98
2018-12-18T03:46:19.915Z,52.08
2018-12-18T03:47:19.923Z,51.98
2018-12-18T03:48:19.927Z,51.98
2018-12-18T03:49:19.928Z,51.89
2018-12-18T03:50:19.926Z,51.98
2018-12-18T03:51:19.927Z,51.98
2018-12-18T03:52:19.940Z,52.27
2018-12-18T03:53:19.939Z,51.89
2018-12-18T03:54:19.938Z,51.89
2018-12-18T03:55:19.944Z,52.08
2018-12-18T03:56:19.942Z,52.27
2018-12-18T03:57:19.951Z,51.89
2018-12-18T03:58:19.950Z,51.89
2018-12-18T03:59:19.954Z,51.89
2018-12-18T04:00:19.967Z,51.98
2018-12-18T04:01:19.961Z,52.08
2018-12-18T04:02:19.964Z,52.08
2018-12-18T04:03:19.981Z,52.18
2018-12-18T04:04:19.969Z,51.89
2018-12-18T04:05:19.975Z,51.89
2018-12-18T04:06:19.969Z,51.98
2018-12-18T04:07:19.976Z,51.70
2018-12-18T04:08:19.970Z,51.98
2018-12-18T04:09:19.974Z,52.18
2018-12-18T04:10:19.973Z,52.18
2018-12-18T04:11:19.990Z,51.89
2018-12-18T04:12:19.991Z,51.89
2018-12-18T04:13:19.993Z,51.89
2018-12-18T04:14:20.690Z,52.27
2018-12-18T04:15:20.012Z,51.98
2018-12-18T04:16:20.009Z,52.06
2018-12-18T04:17:20.003Z,52.08
2018-12-18T04:18:20.019Z,51.98
2018-12-18T04:19:20.011Z,51.98
2018-12-18T04:20:20.023Z,52.08
2018-12-18T04:21:20.015Z,51.76
2018-12-18T04:22:20.026Z,51.79
2018-12-18T04:23:20.024Z,51.89
2018-12-18T04:24:20.024Z,52.08
2018-12-18T04:25:20.039Z,51.89
2018-12-18T04:26:20.032Z,51.98
2018-12-18T04:27:20.037Z,52.18
2018-12-18T04:28:20.039Z,51.89
2018-12-18T04:29:20.039Z,51.79
2018-12-18T04:30:20.044Z,51.70
2018-12-18T04:31:20.053Z,51.89
2018-12-18T04:32:20.059Z,51.79
2018-12-18T04:33:20.052Z,51.89
2018-12-18T04:34:20.058Z,51.79
2018-12-18T04:35:20.065Z,52.66
2018-12-18T04:36:20.150Z,52.47
2018-12-18T04:37:20.067Z,51.79
2018-12-18T04:38:20.137Z,51.89
2018-12-18T04:39:20.073Z,52.37
2018-12-18T04:40:20.069Z,51.79
2018-12-18T04:41:20.088Z,52.37
2018-12-18T04:42:20.161Z,52.47
2018-12-18T04:43:20.084Z,52.56
2018-12-18T04:44:20.163Z,52.47
2018-12-18T04:45:20.081Z,52.37
2018-12-18T04:46:21.698Z,52.56
2018-12-18T04:47:20.769Z,52.56
2018-12-18T04:48:20.101Z,52.47
2018-12-18T04:49:20.097Z,52.08
2018-12-18T04:50:20.913Z,52.66
2018-12-18T04:51:20.101Z,52.47
2018-12-18T04:52:22.765Z,52.47
2018-12-18T04:53:20.111Z,52.47
2018-12-18T04:54:20.111Z,52.56
2018-12-18T04:55:20.113Z,52.56
2018-12-18T04:56:20.125Z,52.47
2018-12-18T04:57:20.127Z,52.37
2018-12-18T04:58:20.128Z,52.56
2018-12-18T04:59:20.127Z,51.98
2018-12-18T05:00:20.194Z,51.98
2018-12-18T05:01:20.145Z,51.79
2018-12-18T05:02:20.142Z,51.79
2018-12-18T05:03:20.701Z,51.70
2018-12-18T05:04:20.152Z,51.70
2018-12-18T05:05:20.141Z,51.89
2018-12-18T05:06:20.152Z,51.70
2018-12-18T05:07:20.146Z,51.70
2018-12-18T05:08:20.167Z,51.89
2018-12-18T05:09:20.154Z,51.79
2018-12-18T05:10:20.160Z,52.18
2018-12-18T05:11:20.161Z,52.56
2018-12-18T05:12:20.168Z,52.18
2018-12-18T05:13:20.162Z,51.70
2018-12-18T05:14:20.169Z,51.70
2018-12-18T05:15:20.171Z,51.89
2018-12-18T05:16:20.180Z,51.70
2018-12-18T05:17:20.173Z,51.70
2018-12-18T05:18:20.184Z,51.79
2018-12-18T05:19:20.196Z,52.56
2018-12-18T05:20:20.192Z,51.89
2018-12-18T05:21:20.183Z,51.79
2018-12-18T05:22:20.772Z,51.79
2018-12-18T05:23:20.191Z,51.79
2018-12-18T05:24:20.207Z,51.79
2018-12-18T05:25:20.200Z,52.18
2018-12-18T05:26:20.201Z,52.18
2018-12-18T05:27:20.219Z,51.98
2018-12-18T05:28:20.206Z,52.47
2018-12-18T05:29:20.210Z,51.79
2018-12-18T05:30:21.207Z,52.56
2018-12-18T05:31:20.710Z,52.56
2018-12-18T05:32:20.212Z,51.79
2018-12-18T05:33:20.801Z,51.79
2018-12-18T05:34:22.712Z,51.98
2018-12-18T05:36:22.730Z,51.98
2018-12-18T05:37:21.209Z,51.86
2018-12-18T05:39:20.253Z,51.79
2018-12-18T05:40:21.217Z,51.70
2018-12-18T05:41:20.709Z,51.79
2018-12-18T05:42:20.248Z,52.47
2018-12-18T05:43:21.213Z,51.70
2018-12-18T05:44:20.264Z,52.47
2018-12-18T05:45:20.259Z,52.47
2018-12-18T05:46:20.257Z,51.89
2018-12-18T05:47:21.229Z,52.27
2018-12-18T05:48:21.716Z,52.47
2018-12-18T05:49:21.221Z,51.79
2018-12-18T05:50:20.267Z,51.67
2018-12-18T05:51:20.268Z,51.79
2018-12-18T05:52:20.275Z,52.47
2018-12-18T05:53:20.277Z,51.98
2018-12-18T05:54:20.279Z,51.79
2018-12-18T05:55:20.285Z,51.60
2018-12-18T05:56:20.297Z,51.98
2018-12-18T05:57:20.283Z,52.44
2018-12-18T05:58:20.288Z,51.98
2018-12-18T05:59:20.295Z,51.50
2018-12-18T06:00:20.293Z,52.37
2018-12-18T06:01:20.297Z,51.86
2018-12-18T06:02:20.304Z,51.76
2018-12-18T06:03:20.308Z,52.06
2018-12-18T06:04:20.306Z,51.76
2018-12-18T06:05:20.311Z,51.76
2018-12-18T06:06:20.309Z,51.96
2018-12-18T06:07:20.321Z,51.86
2018-12-18T06:08:20.324Z,51.96
2018-12-18T06:09:20.321Z,51.86
2018-12-18T06:10:20.324Z,52.44
2018-12-18T06:11:20.326Z,51.67
2018-12-18T06:12:20.331Z,51.76
2018-12-18T06:13:20.335Z,52.25
2018-12-18T06:14:20.341Z,52.25
2018-12-18T06:15:20.336Z,51.96
2018-12-18T06:16:20.340Z,52.15
2018-12-18T06:17:20.331Z,52.15
2018-12-18T06:18:20.350Z,51.96
2018-12-18T06:19:20.351Z,52.15
2018-12-18T06:20:20.351Z,52.15
2018-12-18T06:21:20.359Z,52.18
2018-12-18T06:22:20.349Z,51.98
2018-12-18T06:23:20.360Z,52.06
2018-12-18T06:24:20.365Z,52.25
2018-12-18T06:25:20.368Z,52.06
2018-12-18T06:26:20.368Z,52.18
2018-12-18T06:27:20.367Z,51.96
2018-12-18T06:28:20.375Z,52.06
2018-12-18T06:29:20.374Z,52.25
2018-12-18T06:30:20.379Z,52.25
2018-12-18T06:31:20.382Z,52.27
2018-12-18T06:32:20.389Z,52.18
2018-12-18T06:33:20.387Z,52.18
2018-12-18T06:34:20.392Z,52.27
2018-12-18T06:35:20.397Z,52.18
2018-12-18T06:36:20.395Z,52.08
2018-12-18T06:37:20.405Z,51.98
2018-12-18T06:38:20.403Z,51.38
2018-12-18T06:39:20.403Z,51.98
2018-12-18T06:40:20.401Z,51.67
2018-12-18T06:41:20.405Z,51.86
2018-12-18T06:42:20.414Z,51.98
2018-12-18T06:43:20.412Z,51.96
2018-12-18T06:44:20.421Z,51.86
2018-12-18T06:45:20.420Z,51.96
2018-12-18T06:46:20.423Z,51.76
2018-12-18T06:47:20.424Z,52.06
2018-12-18T06:48:20.424Z,51.96
2018-12-18T06:49:20.426Z,51.86
2018-12-18T06:50:20.436Z,51.86
2018-12-18T06:51:20.437Z,52.15
2018-12-18T06:52:20.438Z,51.38
2018-12-18T06:53:20.449Z,51.67
2018-12-18T06:54:20.439Z,51.29
2018-12-18T06:55:20.453Z,51.96
2018-12-18T06:56:20.458Z,51.09
2018-12-18T06:57:20.462Z,51.29
2018-12-18T06:58:20.471Z,51.29
2018-12-18T06:59:20.456Z,51.67
2018-12-18T07:00:20.460Z,51.38
2018-12-18T07:01:20.462Z,51.29
2018-12-18T07:02:20.470Z,52.06
2018-12-18T07:03:20.470Z,51.67
2018-12-18T07:04:20.466Z,51.67
2018-12-18T07:05:20.472Z,51.76
2018-12-18T07:06:20.478Z,51.48
2018-12-18T07:07:20.481Z,51.76
2018-12-18T07:08:20.478Z,51.67
2018-12-18T07:09:20.478Z,51.76
2018-12-18T07:10:20.488Z,52.06
2018-12-18T07:11:20.487Z,52.15
2018-12-18T07:12:20.490Z,52.44
2018-12-18T07:13:20.494Z,52.83
2018-12-18T07:14:20.491Z,53.02
2018-12-18T07:15:20.497Z,52.73
2018-12-18T07:16:20.505Z,52.63
2018-12-18T07:17:20.508Z,52.83
2018-12-18T07:18:20.496Z,52.73
2018-12-18T07:19:20.518Z,52.73
2018-12-18T07:20:20.512Z,52.63
2018-12-18T07:21:20.524Z,52.73
2018-12-18T07:22:20.516Z,52.73
2018-12-18T07:23:20.526Z,52.56
2018-12-18T07:24:20.525Z,52.73
2018-12-18T07:25:20.525Z,52.75
2018-12-18T07:26:20.532Z,52.54
2018-12-18T07:27:20.535Z,52.75
2018-12-18T07:28:20.532Z,52.66
2018-12-18T07:29:20.543Z,52.56
2018-12-18T07:30:20.555Z,52.37
2018-12-18T07:31:20.544Z,52.18
2018-12-18T07:32:20.546Z,51.98
2018-12-18T07:33:20.548Z,52.27
2018-12-18T07:34:20.551Z,52.08
2018-12-18T07:35:23.453Z,52.27
2018-12-18T07:36:20.560Z,52.27
2018-12-18T07:37:20.554Z,52.66
2018-12-18T07:38:20.556Z,52.08
2018-12-18T07:39:20.564Z,51.98
2018-12-18T07:40:20.566Z,52.27
2018-12-18T07:41:20.589Z,52.66
2018-12-18T07:42:20.576Z,52.66
2018-12-18T07:43:20.582Z,52.75
2018-12-18T07:44:20.582Z,52.66
2018-12-18T07:45:20.613Z,52.27
2018-12-18T07:46:20.580Z,52.18
2018-12-18T07:47:20.586Z,52.08
2018-12-18T07:48:20.611Z,52.18
2018-12-18T07:49:20.592Z,51.98
2018-12-18T07:50:20.598Z,52.56
2018-12-18T07:51:20.597Z,52.66
2018-12-18T07:52:20.602Z,52.75
2018-12-18T07:53:20.605Z,52.08
2018-12-18T07:54:20.606Z,52.66
2018-12-18T07:55:20.612Z,52.27
2018-12-18T07:56:20.612Z,52.37
2018-12-18T07:57:20.623Z,52.56
2018-12-18T07:58:20.617Z,52.18
2018-12-18T07:59:20.622Z,52.37
2018-12-18T08:00:20.624Z,52.66
2018-12-18T08:01:20.625Z,52.37
2018-12-18T08:02:20.629Z,51.70
2018-12-18T08:03:20.633Z,52.56
2018-12-18T08:04:21.224Z,51.89
2018-12-18T08:05:20.638Z,51.79
2018-12-18T08:06:20.637Z,51.70
2018-12-18T08:07:20.648Z,51.50
2018-12-18T08:08:20.666Z,51.70
2018-12-18T08:09:20.660Z,51.89
2018-12-18T08:10:20.655Z,52.27
2018-12-18T08:11:20.655Z,52.27
2018-12-18T08:12:20.662Z,52.75
2018-12-18T08:13:20.668Z,52.75
2018-12-18T08:14:20.662Z,53.33
2018-12-18T08:15:20.676Z,53.33
2018-12-18T08:16:20.670Z,54.20
2018-12-18T08:17:20.669Z,54.68
2018-12-18T08:18:20.671Z,54.39
2018-12-18T08:19:20.682Z,54.87
2018-12-18T08:20:20.684Z,54.78
2018-12-18T08:21:20.685Z,54.68
2018-12-18T08:22:20.691Z,54.39
2018-12-18T08:23:20.686Z,54.68
2018-12-18T08:24:20.696Z,54.58
2018-12-18T08:25:20.694Z,55.74
2018-12-18T08:26:20.696Z,56.41
2018-12-18T08:27:20.700Z,56.60
2018-12-18T08:28:20.702Z,56.90
2018-12-18T08:29:20.713Z,56.99
2018-12-18T08:30:20.705Z,57.37
2018-12-18T08:31:20.713Z,57.95
2018-12-18T08:32:20.709Z,58.34
2018-12-18T08:33:20.718Z,57.86
2018-12-18T08:34:20.725Z,58.24
2018-12-18T08:35:20.736Z,58.75
2018-12-18T08:36:20.726Z,58.24
2018-12-18T08:37:20.731Z,58.05
2018-12-18T08:38:20.733Z,58.08
2018-12-18T08:39:20.738Z,57.60
2018-12-18T08:40:20.739Z,58.37
2018-12-18T08:41:20.752Z,57.86
2018-12-18T08:42:20.752Z,58.17
2018-12-18T08:43:20.734Z,58.27
2018-12-18T08:44:20.751Z,58.17
2018-12-18T08:45:20.758Z,58.37
2018-12-18T08:46:20.754Z,58.17
2018-12-18T08:47:20.806Z,58.56
2018-12-18T08:48:20.808Z,58.27
2018-12-18T08:49:20.760Z,58.08
2018-12-18T08:50:20.765Z,58.17
2018-12-18T08:51:20.770Z,58.85
2018-12-18T08:52:20.778Z,58.37
2018-12-18T08:53:20.773Z,58.17
2018-12-18T08:54:20.778Z,58.47
2018-12-18T08:55:20.780Z,57.79
2018-12-18T08:56:20.781Z,57.98
2018-12-18T08:57:20.791Z,57.31
2018-12-18T08:58:20.788Z,46.40
2018-12-18T08:59:20.794Z,41.28
2018-12-18T09:00:20.796Z,41.74
2018-12-18T09:01:20.798Z,44.89
2018-12-18T09:02:20.800Z,48.07
2018-12-18T09:03:20.810Z,48.81
2018-12-18T09:04:20.806Z,51.79
2018-12-18T09:05:20.868Z,53.32
2018-12-18T09:06:20.814Z,54.19
2018-12-18T09:07:20.819Z,54.57
2018-12-18T09:08:20.819Z,54.79
2018-12-18T09:09:20.824Z,54.79
2018-12-18T09:10:20.824Z,54.89
2018-12-18T09:11:20.830Z,55.37
2018-12-18T09:12:20.837Z,55.46
2018-12-18T09:13:20.833Z,55.49
2018-12-18T09:14:20.843Z,55.98
2018-12-18T09:15:20.832Z,55.88
2018-12-18T09:16:20.844Z,56.26
2018-12-18T09:17:21.786Z,56.26
2018-12-18T09:18:20.842Z,56.26
2018-12-18T09:19:20.850Z,55.98
2018-12-18T09:20:20.850Z,56.87
2018-12-18T09:21:20.857Z,57.15
2018-12-18T09:22:20.856Z,57.73
2018-12-18T09:23:20.860Z,57.25
2018-12-18T09:24:20.864Z,58.02
2018-12-18T09:25:20.886Z,58.12
2018-12-18T09:26:20.866Z,58.50
2018-12-18T09:27:20.868Z,58.02
2018-12-18T09:28:20.878Z,58.82
2018-12-18T09:29:20.879Z,59.01
2018-12-18T09:30:20.877Z,60.36
2018-12-18T09:31:20.870Z,59.49
2018-12-18T09:32:20.881Z,59.97
2018-12-18T09:33:20.887Z,59.97
2018-12-18T09:34:20.889Z,59.97
2018-12-18T09:35:20.888Z,59.23
2018-12-18T09:36:20.892Z,60.00
2018-12-18T09:37:20.897Z,61.07
2018-12-18T09:38:20.898Z,60.68
2018-12-18T09:39:20.900Z,61.16
2018-12-18T09:40:20.906Z,60.49
2018-12-18T09:41:20.913Z,61.45
2018-12-18T09:42:20.917Z,61.87
2018-12-18T09:43:20.908Z,61.19
2018-12-18T09:44:20.913Z,55.79
2018-12-18T09:45:20.924Z,47.87
2018-12-18T09:46:20.925Z,50.95
2018-12-18T09:47:20.928Z,53.23
2018-12-18T09:48:20.932Z,54.39
2018-12-18T09:49:20.932Z,55.93
2018-12-18T09:50:20.998Z,56.32
2018-12-18T09:51:20.934Z,57.28
2018-12-18T09:52:20.938Z,57.86
2018-12-18T09:53:20.942Z,58.34
2018-12-18T09:54:20.950Z,58.34
2018-12-18T09:55:20.950Z,59.97
2018-12-18T09:56:20.950Z,59.88
2018-12-18T09:57:20.954Z,59.59
2018-12-18T09:58:20.959Z,60.94
2018-12-18T09:59:20.970Z,61.80
2018-12-18T10:00:20.964Z,60.94
2018-12-18T10:01:20.962Z,61.13
2018-12-18T10:02:20.968Z,61.25
2018-12-18T10:03:20.983Z,61.83
2018-12-18T10:04:20.978Z,61.25
2018-12-18T10:05:20.978Z,62.41
2018-12-18T10:06:20.978Z,62.12
2018-12-18T10:07:20.982Z,62.12
2018-12-18T10:08:20.994Z,62.41
2018-12-18T10:09:21.015Z,62.32
2018-12-18T10:10:20.991Z,63.38
2018-12-18T10:11:21.054Z,64.63
2018-12-18T10:12:21.005Z,65.50
2018-12-18T10:13:21.000Z,65.50
2018-12-18T10:14:21.009Z,65.01
2018-12-18T10:15:21.010Z,65.11
2018-12-18T10:16:21.007Z,65.69
2018-12-18T10:17:21.014Z,66.11
2018-12-18T10:18:21.020Z,65.81
2018-12-18T10:19:21.017Z,65.78
2018-12-18T10:20:21.026Z,65.81
2018-12-18T10:21:21.036Z,66.39
2018-12-18T10:22:21.031Z,66.30
2018-12-18T10:23:21.034Z,70.64
2018-12-18T10:24:21.030Z,69.19
2018-12-18T10:25:21.046Z,68.71
2018-12-18T10:26:21.044Z,68.13
2018-12-18T10:27:21.044Z,67.55
2018-12-18T10:28:21.123Z,68.52
2018-12-18T10:29:21.053Z,70.92
2018-12-18T10:30:21.061Z,71.70
2018-12-18T10:31:21.064Z,71.02
2018-12-18T10:32:21.069Z,69.57
2018-12-18T10:33:21.070Z,68.80
2018-12-18T10:34:21.095Z,68.42
2018-12-18T10:35:22.097Z,67.46
2018-12-18T10:36:21.069Z,66.88
2018-12-18T10:37:21.082Z,65.81
2018-12-18T10:38:21.081Z,65.14
2018-12-18T10:39:21.091Z,64.86
2018-12-18T10:40:21.097Z,63.89
2018-12-18T10:41:21.097Z,63.21
2018-12-18T10:42:21.095Z,63.41
2018-12-18T10:43:21.102Z,52.01
2018-12-18T10:44:21.099Z,48.64
2018-12-18T10:45:21.106Z,51.79
2018-12-18T10:46:21.119Z,57.09
2018-12-18T10:47:21.110Z,58.63
2018-12-18T10:48:21.116Z,58.82
2018-12-18T10:49:21.119Z,59.69
2018-12-18T10:50:21.122Z,59.97
2018-12-18T10:51:21.129Z,60.36
2018-12-18T10:52:21.129Z,60.84
2018-12-18T10:53:21.135Z,61.04
2018-12-18T10:54:21.139Z,61.04
2018-12-18T10:55:21.136Z,61.04
2018-12-18T10:56:21.143Z,61.04
2018-12-18T10:57:21.156Z,61.04
2018-12-18T10:58:24.073Z,60.97
2018-12-18T10:59:21.147Z,60.97
2018-12-18T11:00:21.160Z,61.07
2018-12-18T11:01:21.163Z,60.58
2018-12-18T11:02:21.167Z,59.72
2018-12-18T11:03:21.165Z,60.10
2018-12-18T11:04:21.169Z,59.62
2018-12-18T11:05:21.168Z,60.10
2018-12-18T11:06:21.187Z,60.20
2018-12-18T11:07:21.176Z,59.62
2018-12-18T11:08:21.179Z,59.65
2018-12-18T11:09:21.192Z,59.07
2018-12-18T11:10:21.183Z,59.36
2018-12-18T11:11:21.191Z,59.55
2018-12-18T11:12:21.194Z,58.78
2018-12-18T11:13:21.199Z,58.78
2018-12-18T11:14:21.200Z,58.30
2018-12-18T11:15:21.203Z,58.40
2018-12-18T11:16:23.827Z,58.59
2018-12-18T11:17:21.833Z,58.30
2018-12-18T11:18:21.216Z,58.88
2018-12-18T11:19:21.224Z,58.20
2018-12-18T11:20:21.223Z,58.30
2018-12-18T11:21:21.221Z,58.04
2018-12-18T11:22:21.228Z,58.33
2018-12-18T11:23:21.244Z,58.23
2018-12-18T11:24:21.238Z,54.09
2018-12-18T11:25:21.240Z,51.87
2018-12-18T11:26:21.244Z,52.16
2018-12-18T11:27:21.243Z,52.93
2018-12-18T11:28:21.255Z,53.80
2018-12-18T11:29:21.254Z,54.18
2018-12-18T11:30:21.265Z,54.47
2018-12-18T11:31:21.265Z,54.38
2018-12-18T11:32:21.267Z,55.15
2018-12-18T11:33:21.269Z,55.63
2018-12-18T11:34:21.270Z,54.96
2018-12-18T11:35:21.276Z,54.28
2018-12-18T11:36:21.280Z,54.28
2018-12-18T11:37:21.278Z,53.99
2018-12-18T11:38:21.287Z,53.99
2018-12-18T11:39:21.292Z,54.47
2018-12-18T11:40:21.299Z,54.57
2018-12-18T11:41:21.298Z,53.99
2018-12-18T11:42:21.308Z,54.09
2018-12-18T11:43:21.347Z,54.18
2018-12-18T11:44:21.330Z,53.99
2018-12-18T11:45:21.313Z,54.09
2018-12-18T11:46:21.316Z,54.18
2018-12-18T11:47:21.331Z,54.09
2018-12-18T11:48:21.327Z,54.09
2018-12-18T11:49:21.325Z,54.09
2018-12-18T11:50:21.353Z,54.18
2018-12-18T11:51:21.335Z,54.38
2018-12-18T11:52:21.340Z,54.28
2018-12-18T11:53:21.344Z,54.28
2018-12-18T11:54:21.348Z,54.28
2018-12-18T11:55:21.351Z,54.09
2018-12-18T11:56:21.351Z,54.40
2018-12-18T11:57:21.361Z,54.47
2018-12-18T11:58:21.354Z,54.50
2018-12-18T11:59:21.363Z,54.31
2018-12-18T12:00:21.369Z,54.21
2018-12-18T12:01:21.433Z,54.02
2018-12-18T12:02:21.379Z,54.02
2018-12-18T12:03:21.382Z,53.92
2018-12-18T12:04:21.399Z,53.92
2018-12-18T12:05:21.391Z,54.11
2018-12-18T12:06:23.109Z,54.11
2018-12-18T12:07:21.401Z,54.31
2018-12-18T12:08:21.402Z,54.31
2018-12-18T12:09:21.405Z,54.11
2018-12-18T12:10:21.407Z,53.63
2018-12-18T12:11:21.423Z,53.83
2018-12-18T12:12:21.419Z,53.73
2018-12-18T12:13:21.421Z,53.73
2018-12-18T12:14:21.488Z,53.73
2018-12-18T12:15:21.536Z,53.34
2018-12-18T12:16:21.437Z,53.25
2018-12-18T12:17:21.437Z,53.27
2018-12-18T12:18:21.446Z,53.17
2018-12-18T12:19:21.447Z,53.47
2018-12-18T12:20:21.454Z,52.59
2018-12-18T12:21:21.455Z,52.89
2018-12-18T12:22:21.462Z,52.11
2018-12-18T12:23:21.468Z,52.11
2018-12-18T12:24:21.469Z,52.14
2018-12-18T12:25:21.473Z,52.04
2018-12-18T12:26:21.479Z,51.85
2018-12-18T12:27:21.491Z,51.56
2018-12-18T12:28:21.493Z,51.27
2018-12-18T12:29:21.494Z,51.10
2018-12-18T12:30:21.501Z,51.29
2018-12-18T12:31:21.513Z,51.01
2018-12-18T12:32:21.513Z,51.10
2018-12-18T12:33:21.517Z,50.52
2018-12-18T12:34:21.522Z,50.23
2018-12-18T12:35:21.521Z,50.13
2018-12-18T12:36:21.531Z,50.23
2018-12-18T12:37:21.544Z,50.04
2018-12-18T12:38:21.539Z,49.95
2018-12-18T12:39:21.545Z,49.95
2018-12-18T12:40:21.552Z,49.95
2018-12-18T12:41:21.562Z,50.13
2018-12-18T12:42:21.565Z,50.13
2018-12-18T12:43:21.569Z,50.33
2018-12-18T12:44:21.577Z,50.23
2018-12-18T12:45:21.577Z,50.13
2018-12-18T12:46:21.582Z,50.13
2018-12-18T12:47:21.593Z,50.13
2018-12-18T12:48:21.597Z,50.33
2018-12-18T12:49:21.599Z,50.33
2018-12-18T12:50:21.605Z,50.43
2018-12-18T12:51:21.613Z,50.43
2018-12-18T12:52:21.616Z,50.89
2018-12-18T12:53:21.623Z,51.10
2018-12-18T12:54:21.625Z,51.27